createdAt,value
2022-09-15T06:11:48.000Z,19.306946
2022-09-15T06:12:08.000Z,19.165955
2022-09-15T06:12:29.000Z,19.045105
2022-09-15T06:12:49.000Z,18.914185
2022-09-15T06:13:17.000Z,18.722839
2022-09-15T06:13:37.000Z,18.601990
2022-09-15T06:13:57.000Z,18.491211
2022-09-15T06:14:17.000Z,18.380432
2022-09-15T06:14:38.000Z,18.259583
2022-09-15T06:14:58.000Z,18.128662
2022-09-15T06:15:18.000Z,17.977600
2022-09-15T06:15:38.000Z,17.856750
2022-09-15T06:15:59.000Z,17.766113
2022-09-15T06:16:19.000Z,17.695618
2022-09-15T06:16:39.000Z,17.625122
2022-09-15T06:16:59.000Z,17.615051
2022-09-15T06:17:20.000Z,17.615051
2022-09-15T06:17:40.000Z,17.615051
2022-09-15T06:18:00.000Z,17.604980
2022-09-15T06:18:21.000Z,17.554626
2022-09-15T06:18:41.000Z,17.453918
2022-09-15T06:19:01.000Z,17.393494
2022-09-15T06:19:21.000Z,17.322998
2022-09-15T06:19:41.000Z,17.272644
2022-09-15T06:20:02.000Z,17.252502
2022-09-15T06:20:22.000Z,17.252502
2022-09-15T06:20:42.000Z,17.242432
2022-09-15T06:21:03.000Z,17.222290
2022-09-15T06:21:23.000Z,17.242432
2022-09-15T06:21:43.000Z,17.242432
2022-09-15T06:22:03.000Z,17.242432
2022-09-15T06:22:23.000Z,17.212219
2022-09-15T06:22:44.000Z,17.222290
2022-09-15T06:23:04.000Z,17.121582
2022-09-15T06:23:24.000Z,17.091370
2022-09-15T06:23:44.000Z,17.101440
2022-09-15T06:24:05.000Z,17.151794
2022-09-15T06:24:25.000Z,17.121582
2022-09-15T06:24:45.000Z,17.000732
2022-09-15T06:25:05.000Z,16.879883
2022-09-15T06:25:26.000Z,16.869812
2022-09-15T06:25:46.000Z,16.849670
2022-09-15T06:26:06.000Z,16.920166
2022-09-15T06:26:26.000Z,16.819458
2022-09-15T06:26:47.000Z,16.819458
2022-09-15T06:27:07.000Z,16.839600
2022-09-15T06:27:27.000Z,16.849670
2022-09-15T06:27:48.000Z,16.900024
2022-09-15T06:28:08.000Z,16.910095
2022-09-15T06:28:28.000Z,16.900024
2022-09-15T06:28:48.000Z,16.879883
2022-09-15T06:29:09.000Z,16.879883
2022-09-15T06:29:29.000Z,16.849670
2022-09-15T06:29:49.000Z,16.819458
2022-09-15T06:30:09.000Z,16.769104
2022-09-15T06:30:30.000Z,16.728821
2022-09-15T06:30:50.000Z,16.688538
2022-09-15T06:31:10.000Z,16.648254
2022-09-15T06:31:30.000Z,16.618042
2022-09-15T06:31:51.000Z,16.618042
2022-09-15T06:32:11.000Z,16.587830
2022-09-15T06:32:31.000Z,16.517334
2022-09-15T06:32:51.000Z,16.507263
2022-09-15T06:33:12.000Z,16.497192
2022-09-15T06:33:32.000Z,16.477051
2022-09-15T06:33:52.000Z,16.466980
2022-09-15T06:34:12.000Z,16.436768
2022-09-15T06:34:33.000Z,16.436768
2022-09-15T06:34:53.000Z,16.416626
2022-09-15T06:35:13.000Z,16.396484
2022-09-15T06:35:34.000Z,16.396484
2022-09-15T06:35:54.000Z,16.366272
2022-09-15T06:36:14.000Z,16.366272
2022-09-15T06:36:34.000Z,16.396484
2022-09-15T06:36:55.000Z,16.416626
2022-09-15T06:37:15.000Z,16.436768
2022-09-15T11:47:40.000Z,19.578857
2022-09-15T11:48:00.000Z,19.598999
2022-09-15T11:48:44.000Z,19.619141
2022-09-15T11:49:05.000Z,19.639282
2022-09-15T11:49:25.000Z,19.639282
2022-09-15T11:49:46.000Z,19.669495
2022-09-15T11:50:06.000Z,19.699707
2022-09-15T11:50:37.000Z,19.669495
2022-09-15T11:50:57.000Z,19.709778
2022-09-15T11:51:18.000Z,19.719849
2022-09-15T11:51:38.000Z,19.719849
2022-09-15T11:51:58.000Z,19.750061
2022-09-15T11:52:18.000Z,19.760132
2022-09-15T11:52:39.000Z,19.760132
2022-09-15T11:52:59.000Z,19.709778
2022-09-15T11:53:19.000Z,19.699707
2022-09-15T11:53:40.000Z,19.709778
2022-09-15T11:54:00.000Z,19.719849
2022-09-15T11:54:20.000Z,19.750061
2022-09-15T11:54:40.000Z,19.699707
2022-09-15T11:55:17.000Z,19.679565
2022-09-15T11:55:37.000Z,19.709778
2022-09-15T11:55:57.000Z,19.780273
2022-09-15T11:56:17.000Z,19.760132
2022-09-15T11:56:38.000Z,19.800415
2022-09-15T11:56:58.000Z,19.820557
2022-09-15T11:57:18.000Z,19.860840
2022-09-15T11:57:39.000Z,19.870911
2022-09-15T11:57:59.000Z,19.901123
2022-09-15T11:58:19.000Z,19.951477
2022-09-15T11:58:40.000Z,19.951477
2022-09-15T11:59:00.000Z,19.921265
2022-09-15T11:59:20.000Z,19.901123
2022-09-15T11:59:40.000Z,19.951477
2022-09-15T12:00:01.000Z,19.981689
2022-09-15T12:00:21.000Z,20.042114
2022-09-15T12:00:41.000Z,20.072327
2022-09-15T12:01:02.000Z,20.102539
2022-09-15T12:01:22.000Z,20.122681
2022-09-15T12:01:42.000Z,20.162964
2022-09-15T12:02:10.000Z,20.162964
